createdAt,value
2018-03-20T00:00:37.752Z,1.50
2018-03-20T00:03:03.923Z,1.50
2018-03-20T00:05:30.177Z,1.50
2018-03-20T00:07:57.114Z,1.50
2018-03-20T00:10:24.061Z,1.50
2018-03-20T00:12:51.006Z,1.50
2018-03-20T00:15:17.940Z,1.50
2018-03-20T00:17:44.170Z,1.50
2018-03-20T00:20:10.334Z,1.50
2018-03-20T00:22:36.597Z,1.50
2018-03-20T00:25:02.810Z,1.50
2018-03-20T00:27:29.029Z,1.50
2018-03-20T00:29:55.246Z,1.50
2018-03-20T00:32:21.478Z,1.50
2018-03-20T00:34:47.679Z,1.50
2018-03-20T00:37:13.944Z,1.50
2018-03-20T00:39:40.181Z,1.40
2018-03-20T00:42:06.390Z,1.50
2018-03-20T00:44:32.614Z,1.50
2018-03-20T00:46:58.877Z,1.50
2018-03-20T00:49:25.111Z,1.60
2018-03-20T00:51:51.336Z,1.60
2018-03-20T00:54:17.552Z,1.50
2018-03-20T00:56:43.790Z,1.50
2018-03-20T00:59:10.012Z,1.40
2018-03-20T01:01:36.180Z,1.40
2018-03-20T01:04:02.433Z,1.30
2018-03-20T01:06:28.651Z,1.20
2018-03-20T01:08:54.852Z,1.20
2018-03-20T01:11:21.036Z,1.20
2018-03-20T01:13:47.296Z,1.10
2018-03-20T01:16:13.517Z,1.10
2018-03-20T01:18:39.755Z,1.00
2018-03-20T01:21:05.939Z,0.90
2018-03-20T01:23:32.122Z,0.90
2018-03-20T01:25:59.090Z,0.80
2018-03-20T01:28:25.282Z,0.70
2018-03-20T01:30:51.501Z,0.70
2018-03-20T01:33:17.695Z,0.70
2018-03-20T01:35:43.905Z,0.80
2018-03-20T01:38:10.161Z,0.80
2018-03-20T01:40:36.334Z,0.80
2018-03-20T01:43:03.327Z,0.70
2018-03-20T01:45:29.556Z,0.70
2018-03-20T01:47:55.743Z,0.70
2018-03-20T01:50:22.672Z,0.60
2018-03-20T01:53:01.198Z,0.60
2018-03-20T01:55:27.504Z,0.60
2018-03-20T01:57:53.684Z,0.60
2018-03-20T02:00:19.895Z,0.60
2018-03-20T02:02:46.827Z,0.60
2018-03-20T02:05:13.060Z,0.50
2018-03-20T02:07:40.003Z,0.50
2018-03-20T02:10:06.240Z,0.50
2018-03-20T02:12:32.417Z,0.60
2018-03-20T02:14:58.610Z,0.60
2018-03-20T02:17:24.809Z,0.60
2018-03-20T02:19:51.027Z,0.70
2018-03-20T02:22:17.290Z,0.70
2018-03-20T02:24:43.480Z,0.80
2018-03-20T02:27:09.659Z,0.80
2018-03-20T02:29:35.854Z,0.80
2018-03-20T02:32:02.834Z,0.70
2018-03-20T02:34:29.011Z,0.70
2018-03-20T02:36:55.939Z,0.70
2018-03-20T02:39:22.133Z,0.70
2018-03-20T02:41:48.345Z,0.70
2018-03-20T02:44:14.503Z,0.70
2018-03-20T02:46:40.759Z,0.70
2018-03-20T02:49:06.991Z,0.70
2018-03-20T02:51:33.913Z,0.70
2018-03-20T02:54:00.157Z,0.60
2018-03-20T02:56:26.399Z,0.70
2018-03-20T02:58:53.341Z,0.60
2018-03-20T03:01:20.261Z,0.50
2018-03-20T03:03:46.456Z,0.50
2018-03-20T03:06:12.754Z,0.40
2018-03-20T03:08:38.966Z,0.30
2018-03-20T03:11:05.119Z,0.30
2018-03-20T03:13:31.355Z,0.20
2018-03-20T03:15:57.539Z,0.10
2018-03-20T03:18:24.517Z,-0.10
2018-03-20T03:20:50.689Z,-0.20
2018-03-20T03:23:16.898Z,-0.20
2018-03-20T03:25:43.086Z,-0.20
2018-03-20T03:28:10.043Z,-0.30
2018-03-20T03:30:36.249Z,-0.40
2018-03-20T03:33:03.251Z,-0.40
2018-03-20T03:35:29.468Z,-0.40
2018-03-20T03:37:55.699Z,-0.30
2018-03-20T03:40:21.859Z,-0.30
2018-03-20T03:42:48.161Z,-0.30
2018-03-20T03:45:14.345Z,-0.30
2018-03-20T03:47:40.556Z,-0.30
2018-03-20T03:50:07.488Z,-0.20
2018-03-20T03:52:33.670Z,-0.20
2018-03-20T03:54:59.956Z,-0.20
2018-03-20T03:57:26.955Z,-0.30
2018-03-20T03:59:53.178Z,-0.40
2018-03-20T04:02:19.379Z,-0.40
2018-03-20T04:04:45.605Z,-0.40
2018-03-20T04:07:11.840Z,-0.50
2018-03-20T04:09:38.093Z,-0.50
2018-03-20T04:12:04.359Z,-0.50
2018-03-20T04:14:31.337Z,-0.50
2018-03-20T04:16:57.528Z,-0.60
2018-03-20T04:19:23.718Z,-0.50
2018-03-20T04:21:49.962Z,-0.50
2018-03-20T04:24:16.211Z,-0.50
2018-03-20T04:26:42.481Z,-0.40
2018-03-20T04:29:08.724Z,-0.40
2018-03-20T04:31:34.903Z,-0.40
2018-03-20T04:34:01.868Z,-0.40
2018-03-20T04:36:28.128Z,-0.50
2018-03-20T04:38:54.301Z,-0.50
2018-03-20T04:41:21.287Z,-0.40
2018-03-20T04:43:47.488Z,-0.50
2018-03-20T04:46:14.421Z,-0.40
2018-03-20T04:48:41.367Z,-0.30
2018-03-20T04:51:08.323Z,-0.40
2018-03-20T04:53:35.243Z,-0.40
2018-03-20T04:56:01.446Z,-0.50
2018-03-20T04:58:27.634Z,-0.40
2018-03-20T05:00:53.804Z,-0.50
2018-03-20T05:03:20.013Z,-0.40
2018-03-20T05:05:46.308Z,-0.50
2018-03-20T05:08:13.254Z,-0.60
2018-03-20T05:10:39.469Z,-0.70
2018-03-20T05:13:06.425Z,-0.70
2018-03-20T05:15:33.416Z,-0.80
2018-03-20T05:17:59.669Z,-0.90
2018-03-20T05:20:31.952Z,-0.90
2018-03-20T05:26:01.700Z,-1.10
2018-03-20T05:28:27.956Z,-1.10
2018-03-20T05:30:54.190Z,-1.10
2018-03-20T05:33:20.446Z,-1.10
2018-03-20T05:35:46.700Z,-1.10
2018-03-20T05:38:13.636Z,-1.10
2018-03-20T05:40:39.845Z,-1.20
2018-03-20T05:43:06.078Z,-1.20
2018-03-20T05:45:32.295Z,-1.30
2018-03-20T05:48:04.609Z,-1.30
2018-03-20T05:50:51.727Z,-1.30
2018-03-20T05:53:18.683Z,-1.40
2018-03-20T05:55:44.881Z,-1.50
2018-03-20T05:58:11.904Z,-1.50
2018-03-20T06:00:38.065Z,-1.60
2018-03-20T06:03:04.246Z,-1.50
2018-03-20T06:05:30.427Z,-1.50
2018-03-20T06:07:57.381Z,-1.50
2018-03-20T06:10:23.560Z,-1.60
2018-03-20T06:12:49.748Z,-1.60
2018-03-20T06:15:15.917Z,-1.60
2018-03-20T06:17:42.103Z,-1.60
2018-03-20T06:20:08.298Z,-1.60
2018-03-20T06:22:35.303Z,-1.70
2018-03-20T06:25:01.480Z,-1.70
2018-03-20T06:27:27.776Z,-1.70
2018-03-20T06:29:54.045Z,-1.70
2018-03-20T06:32:20.244Z,-1.70
2018-03-20T06:34:46.490Z,-1.70
2018-03-20T06:37:12.676Z,-1.70
2018-03-20T06:39:38.888Z,-1.70
2018-03-20T06:42:05.059Z,-1.70
2018-03-20T06:44:31.262Z,-1.70
2018-03-20T06:46:57.633Z,-1.70
2018-03-20T06:49:24.048Z,-1.60
2018-03-20T06:51:50.446Z,-1.60
2018-03-20T06:54:16.880Z,-1.70
2018-03-20T06:56:44.133Z,-1.70
2018-03-20T06:59:10.589Z,-1.70
2018-03-20T07:01:37.103Z,-1.70
2018-03-20T07:04:04.248Z,-1.60
2018-03-20T07:06:30.626Z,-1.70
2018-03-20T07:08:57.078Z,-1.50
2018-03-20T07:11:23.554Z,-1.50
2018-03-20T07:13:49.968Z,-1.50
2018-03-20T07:16:16.403Z,-1.50
2018-03-20T07:18:43.551Z,-1.40
2018-03-20T07:21:09.970Z,-1.50
2018-03-20T07:23:36.375Z,-1.40
2018-03-20T07:26:02.821Z,-1.40
2018-03-20T07:28:29.296Z,-1.30
2018-03-20T07:30:56.465Z,-1.30
2018-03-20T07:33:22.956Z,-1.40
2018-03-20T07:35:49.336Z,-1.30
2018-03-20T07:38:15.771Z,-1.30
2018-03-20T07:40:42.186Z,-1.30
2018-03-20T07:43:08.671Z,-1.20
2018-03-20T07:45:35.102Z,-1.20
2018-03-20T07:48:01.577Z,-1.20
2018-03-20T07:50:28.042Z,-1.20
2018-03-20T07:52:54.476Z,-1.10
2018-03-20T07:55:20.960Z,-1.10
2018-03-20T07:57:48.117Z,-1.00
2018-03-20T08:00:15.267Z,-1.00
2018-03-20T08:02:42.154Z,-1.00
2018-03-20T08:05:08.569Z,-0.90
2018-03-20T08:07:34.983Z,-0.90
2018-03-20T08:10:01.421Z,-0.80
2018-03-20T08:12:27.826Z,-0.70
2018-03-20T08:14:54.234Z,-0.60
2018-03-20T08:17:20.673Z,-0.50
2018-03-20T08:19:47.058Z,-0.40
2018-03-20T08:22:13.542Z,-0.30
2018-03-20T08:24:39.956Z,-0.20
2018-03-20T08:27:06.422Z,-0.20
2018-03-20T08:29:32.842Z,-0.20
2018-03-20T08:31:59.244Z,-0.20
2018-03-20T08:34:25.651Z,-0.20
2018-03-20T08:36:52.092Z,-0.20
2018-03-20T08:39:18.558Z,-0.20
2018-03-20T08:41:45.080Z,-0.10
2018-03-20T08:44:11.541Z,-0.10
2018-03-20T08:46:38.010Z,-0.10
2018-03-20T08:49:04.494Z,-0.10
2018-03-20T08:51:30.909Z,0.00
2018-03-20T08:53:57.375Z,0.00
2018-03-20T08:56:24.577Z,0.00
2018-03-20T08:58:50.973Z,0.00
2018-03-20T09:01:17.390Z,0.10
2018-03-20T09:03:43.864Z,0.20
2018-03-20T09:06:10.351Z,0.30
2018-03-20T09:08:36.779Z,0.30
2018-03-20T09:11:03.191Z,0.40
2018-03-20T09:13:29.561Z,0.50
2018-03-20T09:15:56.022Z,0.50
2018-03-20T09:18:22.455Z,0.50
2018-03-20T09:20:48.895Z,0.60
2018-03-20T09:23:15.362Z,0.60
2018-03-20T09:25:41.787Z,0.60
2018-03-20T09:28:08.233Z,0.60
2018-03-20T09:30:34.584Z,0.60
2018-03-20T09:33:01.722Z,0.70
2018-03-20T09:35:28.198Z,0.70
2018-03-20T09:37:54.622Z,0.80
2018-03-20T09:40:21.087Z,0.80
2018-03-20T09:42:47.511Z,0.80
2018-03-20T09:45:13.896Z,0.90
2018-03-20T09:47:40.284Z,0.90
2018-03-20T09:50:06.721Z,1.00
2018-03-20T09:52:33.198Z,1.10
2018-03-20T09:54:59.542Z,1.20
2018-03-20T09:57:25.973Z,1.20
2018-03-20T09:59:52.429Z,1.30
2018-03-20T10:02:18.861Z,1.30
2018-03-20T10:04:45.302Z,1.40
2018-03-20T10:07:11.720Z,1.50
2018-03-20T10:09:38.155Z,1.50
2018-03-20T10:12:05.340Z,1.60
2018-03-20T10:14:31.758Z,1.50
2018-03-20T10:16:58.233Z,1.60
2018-03-20T10:19:24.584Z,1.60
2018-03-20T10:21:51.708Z,1.90
2018-03-20T10:24:18.188Z,1.90
2018-03-20T10:26:44.581Z,2.00
2018-03-20T10:29:10.982Z,2.10
2018-03-20T10:31:37.458Z,2.10
2018-03-20T10:34:04.634Z,2.20
2018-03-20T10:36:31.084Z,2.10
2018-03-20T10:38:57.514Z,2.20
2018-03-20T10:41:23.909Z,2.20
2018-03-20T10:43:50.342Z,2.20
2018-03-20T10:46:17.480Z,2.20
2018-03-20T10:48:43.887Z,2.20
2018-03-20T10:51:10.306Z,2.30
2018-03-20T10:53:36.736Z,2.40
2018-03-20T10:56:03.144Z,2.40
2018-03-20T10:58:29.621Z,2.40
2018-03-20T11:01:02.159Z,2.50
2018-03-20T11:03:28.596Z,2.60
2018-03-20T11:05:55.122Z,2.70
2018-03-20T11:08:21.380Z,2.70
2018-03-20T11:10:47.560Z,2.80
2018-03-20T11:13:13.772Z,2.80
2018-03-20T11:15:39.994Z,2.90
2018-03-20T11:18:06.241Z,2.90
2018-03-20T11:20:32.480Z,3.00
2018-03-20T11:22:58.708Z,2.90
2018-03-20T11:25:24.945Z,2.90
2018-03-20T11:27:51.153Z,3.00
2018-03-20T11:30:17.376Z,3.10
2018-03-20T11:32:43.634Z,3.10
2018-03-20T11:35:10.574Z,3.20
2018-03-20T11:37:37.585Z,3.10
2018-03-20T11:40:03.822Z,3.10
2018-03-20T11:42:29.987Z,3.10
2018-03-20T11:44:56.908Z,3.20
2018-03-20T11:47:23.114Z,3.20
2018-03-20T11:49:49.299Z,3.30
2018-03-20T11:52:15.514Z,3.30
2018-03-20T11:54:42.469Z,3.30
2018-03-20T11:57:08.722Z,3.20
2018-03-20T11:59:34.935Z,3.30
2018-03-20T12:02:01.145Z,3.30
2018-03-20T12:04:28.120Z,3.40
2018-03-20T12:06:54.331Z,3.30
2018-03-20T12:09:32.699Z,3.40
2018-03-20T12:11:58.930Z,3.40
2018-03-20T12:14:25.112Z,3.40
2018-03-20T12:16:52.121Z,3.50
2018-03-20T12:19:19.084Z,3.50
2018-03-20T12:21:45.305Z,3.50
2018-03-20T12:24:12.274Z,3.70
2018-03-20T12:26:38.468Z,3.70
2018-03-20T12:29:05.437Z,3.80
2018-03-20T12:31:31.652Z,3.70
2018-03-20T12:33:57.858Z,3.70
2018-03-20T12:36:24.821Z,3.60
2018-03-20T12:38:51.839Z,3.50
2018-03-20T12:41:18.072Z,3.40
2018-03-20T12:43:44.247Z,3.50
2018-03-20T12:46:10.453Z,3.40
2018-03-20T12:48:37.362Z,3.30
2018-03-20T12:51:03.578Z,3.30
2018-03-20T12:53:29.785Z,3.30
2018-03-20T12:55:56.016Z,3.30
2018-03-20T12:58:22.258Z,3.40
2018-03-20T13:00:48.519Z,3.40
2018-03-20T13:03:14.775Z,3.40
2018-03-20T13:05:41.229Z,3.50
2018-03-20T13:08:08.412Z,3.50
2018-03-20T13:10:34.833Z,3.50
2018-03-20T13:13:02.058Z,3.50
2018-03-20T13:15:29.256Z,3.50
2018-03-20T13:17:55.759Z,3.40
2018-03-20T13:20:22.201Z,3.50
2018-03-20T13:22:48.623Z,3.50
2018-03-20T13:25:15.819Z,3.50
2018-03-20T13:27:42.227Z,3.40
2018-03-20T13:30:08.778Z,3.40
2018-03-20T13:32:35.174Z,3.50
2018-03-20T13:35:02.343Z,3.50
2018-03-20T13:37:28.642Z,3.40
2018-03-20T13:39:54.921Z,3.50
2018-03-20T13:42:21.132Z,3.50
2018-03-20T13:44:47.348Z,3.50
2018-03-20T13:47:13.561Z,3.50
2018-03-20T13:49:39.753Z,3.50
2018-03-20T13:52:06.081Z,3.50
2018-03-20T13:54:32.274Z,3.60
2018-03-20T13:56:58.536Z,3.60
2018-03-20T13:59:24.745Z,3.70
2018-03-20T14:01:51.691Z,3.80
2018-03-20T14:04:18.723Z,3.70
2018-03-20T14:06:44.993Z,3.70
2018-03-20T14:09:11.220Z,3.70
2018-03-20T14:11:37.384Z,3.70
2018-03-20T14:14:03.599Z,3.70
2018-03-20T14:16:29.845Z,3.60
2018-03-20T14:18:56.020Z,3.60
2018-03-20T14:21:22.951Z,3.70
2018-03-20T14:23:49.914Z,3.70
2018-03-20T14:26:16.109Z,3.60
2018-03-20T14:28:42.349Z,3.60
2018-03-20T14:31:09.429Z,3.40
2018-03-20T14:33:35.775Z,3.30
2018-03-20T14:36:02.898Z,3.30
2018-03-20T14:38:29.298Z,3.20
2018-03-20T14:40:55.652Z,3.20
2018-03-20T14:43:22.058Z,3.20
2018-03-20T14:45:48.482Z,3.10
2018-03-20T14:48:14.916Z,3.10
2018-03-20T14:50:41.303Z,3.10
2018-03-20T14:53:07.733Z,3.10
2018-03-20T14:55:34.295Z,3.00
2018-03-20T14:58:00.760Z,3.00
2018-03-20T15:00:27.255Z,3.10
2018-03-20T15:02:54.453Z,3.10
2018-03-20T15:05:20.912Z,3.10
2018-03-20T15:07:47.264Z,3.10
2018-03-20T15:10:14.475Z,3.10
2018-03-20T15:12:40.911Z,3.00
2018-03-20T15:15:07.146Z,3.10
2018-03-20T15:17:33.424Z,3.00
2018-03-20T15:19:59.644Z,3.10
2018-03-20T15:22:25.847Z,3.00
2018-03-20T15:24:52.059Z,3.00
2018-03-20T15:27:18.277Z,3.00
2018-03-20T15:29:45.242Z,2.90
2018-03-20T15:32:11.480Z,2.80
2018-03-20T15:34:37.767Z,2.80
2018-03-20T15:37:04.841Z,2.80
2018-03-20T15:39:31.051Z,2.80
2018-03-20T15:41:57.989Z,2.90
2018-03-20T15:44:24.897Z,2.80
2018-03-20T15:46:51.092Z,2.80
2018-03-20T15:49:17.312Z,2.80
2018-03-20T15:51:43.540Z,2.90
2018-03-20T15:54:09.836Z,2.90
2018-03-20T15:56:36.029Z,2.80
2018-03-20T15:59:02.273Z,2.80
2018-03-20T16:01:28.472Z,2.80
2018-03-20T16:03:54.789Z,2.80
2018-03-20T16:06:21.036Z,2.80
2018-03-20T16:08:47.209Z,2.80
2018-03-20T16:11:14.176Z,2.90
2018-03-20T16:13:40.353Z,2.80
2018-03-20T16:16:06.536Z,2.90
2018-03-20T16:18:32.864Z,3.00
2018-03-20T16:20:59.064Z,3.00
2018-03-20T16:23:25.993Z,3.10
2018-03-20T16:25:52.223Z,3.00
2018-03-20T16:28:18.470Z,3.10
2018-03-20T16:30:45.484Z,3.20
2018-03-20T16:33:11.713Z,3.10
2018-03-20T16:35:37.891Z,3.20
2018-03-20T16:38:04.115Z,3.20
2018-03-20T16:40:30.295Z,3.30
2018-03-20T16:42:56.522Z,3.30
2018-03-20T16:45:22.694Z,3.30
2018-03-20T16:47:48.915Z,3.30
2018-03-20T16:50:15.852Z,3.40
2018-03-20T16:52:42.801Z,3.40
2018-03-20T16:55:09.766Z,3.40
2018-03-20T16:57:35.920Z,3.40
2018-03-20T17:00:02.203Z,3.50
2018-03-20T17:02:29.189Z,3.50
2018-03-20T17:04:55.413Z,3.40
2018-03-20T17:07:21.686Z,3.40
2018-03-20T17:09:47.912Z,3.30
2018-03-20T17:12:14.056Z,3.20
2018-03-20T17:14:41.014Z,3.00
2018-03-20T17:17:07.950Z,3.00
2018-03-20T17:19:34.215Z,2.90
2018-03-20T17:22:00.388Z,2.90
2018-03-20T17:24:26.568Z,2.80
2018-03-20T17:26:52.776Z,2.70
2018-03-20T17:29:18.993Z,2.70
2018-03-20T17:31:45.961Z,2.60
2018-03-20T17:34:12.157Z,2.50
2018-03-20T17:36:39.099Z,2.50
2018-03-20T17:39:06.022Z,2.50
2018-03-20T17:41:32.216Z,2.40
2018-03-20T17:43:58.400Z,2.50
2018-03-20T17:46:24.612Z,2.50
2018-03-20T17:48:50.829Z,2.50
2018-03-20T17:51:17.000Z,2.40
2018-03-20T17:53:43.163Z,2.50
2018-03-20T17:56:09.389Z,2.50
2018-03-20T17:58:35.614Z,2.50
2018-03-20T18:01:01.864Z,2.50
2018-03-20T18:03:28.096Z,2.50
2018-03-20T18:05:54.421Z,2.50
2018-03-20T18:08:20.605Z,2.50
2018-03-20T18:10:46.796Z,2.50
2018-03-20T18:13:13.766Z,2.50
2018-03-20T18:15:40.032Z,2.40
2018-03-20T18:18:06.232Z,2.50
2018-03-20T18:20:32.403Z,2.40
2018-03-20T18:22:58.658Z,2.40
2018-03-20T18:25:24.826Z,2.40
2018-03-20T18:27:51.001Z,2.40
2018-03-20T18:30:17.930Z,2.30
2018-03-20T18:32:44.130Z,2.30
2018-03-20T18:35:10.313Z,2.30
2018-03-20T18:37:36.519Z,2.30
2018-03-20T18:40:02.716Z,2.20
2018-03-20T18:42:28.912Z,2.20
2018-03-20T18:44:55.084Z,2.20
2018-03-20T18:47:21.329Z,2.20
2018-03-20T18:49:47.495Z,2.20
2018-03-20T18:52:13.744Z,2.20
2018-03-20T18:54:39.982Z,2.10
2018-03-20T18:57:06.210Z,2.10
2018-03-20T18:59:32.429Z,2.20
2018-03-20T19:01:58.624Z,2.10
2018-03-20T19:04:24.798Z,2.10
2018-03-20T19:06:51.053Z,2.10
2018-03-20T19:09:18.037Z,2.10
2018-03-20T19:11:44.257Z,2.10
2018-03-20T19:14:10.423Z,2.10
2018-03-20T19:16:36.619Z,2.10
2018-03-20T19:19:02.811Z,2.10
2018-03-20T19:21:29.037Z,2.10
2018-03-20T19:23:56.006Z,2.20
2018-03-20T19:26:22.228Z,2.10
2018-03-20T19:28:48.444Z,2.30
2018-03-20T19:31:15.363Z,2.40
2018-03-20T19:33:41.555Z,2.30
2018-03-20T19:36:07.773Z,2.40
2018-03-20T19:38:33.919Z,2.40
2018-03-20T19:41:00.178Z,2.30
2018-03-20T19:43:26.366Z,2.40
2018-03-20T19:45:52.556Z,2.30
2018-03-20T19:48:19.558Z,2.30
2018-03-20T19:50:45.813Z,2.20
2018-03-20T19:53:12.739Z,2.30
2018-03-20T19:55:38.965Z,2.20
2018-03-20T19:58:05.243Z,2.20
2018-03-20T20:00:31.444Z,2.20
2018-03-20T20:02:58.412Z,2.20
2018-03-20T20:05:24.604Z,2.20
2018-03-20T20:07:50.779Z,2.20
2018-03-20T20:10:17.035Z,2.20
2018-03-20T20:12:43.217Z,2.20
2018-03-20T20:15:09.378Z,2.20
2018-03-20T20:17:35.609Z,2.20
2018-03-20T20:20:01.924Z,2.20
2018-03-20T20:22:28.124Z,2.10
2018-03-20T20:24:55.062Z,2.10
2018-03-20T20:27:21.306Z,2.10
2018-03-20T20:29:47.516Z,2.10
2018-03-20T20:32:14.490Z,2.10
2018-03-20T20:34:40.735Z,2.10
2018-03-20T20:37:06.901Z,2.10
2018-03-20T20:39:33.862Z,2.20
2018-03-20T20:42:00.849Z,2.20
2018-03-20T20:44:27.092Z,2.10
2018-03-20T20:46:53.392Z,2.20
2018-03-20T20:49:19.668Z,2.10
2018-03-20T20:51:45.853Z,2.10
2018-03-20T20:54:12.133Z,2.10
2018-03-20T20:56:39.153Z,2.10
2018-03-20T20:59:05.432Z,2.00
2018-03-20T21:01:31.655Z,2.10
2018-03-20T21:03:58.670Z,2.20
2018-03-20T21:06:24.917Z,2.10
2018-03-20T21:08:51.864Z,2.20
2018-03-20T21:11:18.798Z,2.20
2018-03-20T21:13:45.037Z,2.10
2018-03-20T21:16:11.994Z,2.20
2018-03-20T21:18:39.049Z,2.20
2018-03-20T21:21:05.324Z,2.10
2018-03-20T21:23:31.561Z,2.20
2018-03-20T21:25:57.825Z,2.20
2018-03-20T21:28:24.760Z,2.20
2018-03-20T21:30:51.737Z,2.20
2018-03-20T21:33:17.966Z,2.10
2018-03-20T21:35:44.163Z,2.20
2018-03-20T21:38:11.144Z,2.30
2018-03-20T21:40:37.377Z,2.20
2018-03-20T21:43:03.653Z,2.30
2018-03-20T21:45:29.891Z,2.30
2018-03-20T21:47:56.805Z,2.40
2018-03-20T21:50:23.028Z,2.30
2018-03-20T21:52:49.244Z,2.30
2018-03-20T21:55:15.429Z,2.30
2018-03-20T21:57:42.346Z,2.30
2018-03-20T22:00:08.665Z,2.30
2018-03-20T22:02:34.833Z,2.30
2018-03-20T22:05:01.023Z,2.40
2018-03-20T22:07:27.230Z,2.40
2018-03-20T22:09:53.397Z,2.40
2018-03-20T22:12:20.342Z,2.40
2018-03-20T22:14:47.240Z,2.30
2018-03-20T22:17:13.420Z,2.20
2018-03-20T22:19:40.361Z,2.30
2018-03-20T22:22:07.288Z,2.20
2018-03-20T22:24:33.448Z,2.20
2018-03-20T22:26:59.690Z,2.20
2018-03-20T22:29:25.951Z,2.20
2018-03-20T22:31:52.179Z,2.10
2018-03-20T22:34:18.371Z,2.10
2018-03-20T22:36:44.568Z,2.10
2018-03-20T22:39:11.536Z,2.20
2018-03-20T22:41:37.773Z,2.20
2018-03-20T22:44:03.969Z,2.30
2018-03-20T22:46:30.927Z,2.30
2018-03-20T22:48:57.850Z,2.30
2018-03-20T22:51:24.054Z,2.30
2018-03-20T22:53:51.100Z,2.30
2018-03-20T22:56:17.652Z,2.30
2018-03-20T22:58:43.863Z,2.30
2018-03-20T23:01:10.052Z,2.30
2018-03-20T23:03:36.228Z,2.30
2018-03-20T23:06:02.464Z,2.30
2018-03-20T23:08:28.652Z,2.30
2018-03-20T23:10:54.815Z,2.40
2018-03-20T23:13:21.024Z,2.40
2018-03-20T23:15:47.242Z,2.40
2018-03-20T23:18:13.426Z,2.40
2018-03-20T23:20:39.615Z,2.40
2018-03-20T23:23:05.845Z,2.40
2018-03-20T23:25:32.055Z,2.40
2018-03-20T23:27:58.236Z,2.40
2018-03-20T23:30:24.491Z,2.30
2018-03-20T23:32:50.719Z,2.30
2018-03-20T23:35:16.917Z,2.20
2018-03-20T23:37:43.132Z,2.30
2018-03-20T23:40:09.354Z,2.30
2018-03-20T23:42:36.319Z,2.30
2018-03-20T23:45:02.553Z,2.30
2018-03-20T23:47:28.746Z,2.30
2018-03-20T23:49:55.666Z,2.20
2018-03-20T23:52:21.894Z,2.20
2018-03-20T23:54:48.081Z,2.20
2018-03-20T23:57:14.294Z,2.20
2018-03-20T23:59:40.494Z,2.20
